x

South Santa Rosa Is. Ca (46069) Wave Buoy

6:50 - Sun 1st Mar 2015 All times are PST. -8 hours from GMT.

  • Sig Wave height 6.6ft
  • Peak Period 12s
  • Average Period 9s
  • Wind
    4mph, 9mph gusts
  • Sea Temp 61°f
  • Air Temp 57°f
  • Sea Pressure 1012.7mb
  • South Santa Rosa Is. Ca
  • South Santa Rosa Is. Ca

More Historic Weather Station data

Upgrade to MSW Pro to gain access to the past 30 days of data for over 8000 Wavebouys and Weather Stations around the globe.

Join Pro

Comparision Forecast

View Surf forecast
   
dim. 03/01 6:50 6.5ft 12s 9s 4 9 mph 1012.7mb 61f 57f
5:50 7ft 11s 9s 4 7 mph 1012.2mb 61f 57f
4:50 7.5ft 11s 9s 4 7 mph 1011.9mb 61f 58f
3:50 7ft 11s 9s 7 9 mph 1012.1mb 61f 57f
2:50 7ft 11s 8s  -  2 mph 1012.1mb 62f 58f
1:50 7ft 10s 8s 2 4 mph 1012.2mb 61f 58f
12:50 7ft 10s 8s  -  2 mph 1012.8mb 60f 58f
11:50 7ft 10s 9s 2 4 mph 1013.2mb 60f 57f
10:50 6ft 11s 8s 4 7 mph 1013.4mb 60f 57f
9:50 6.5ft 10s 8s 4 7 mph 1013.3mb 59f 56f
8:50 6ft 10s 8s 2 4 mph 1013.2mb 59f 56f
7:50 6ft 10s 8s 7
mph
1012.6mb 58f 56f
6:50 5.5ft 9s 8s 2 4 mph 1012.5mb 58f 55f
5:50 6ft 10s 8s 2 4 mph 1011.9mb 58f 56f
4:50 5.5ft 9s 8s 4 7 mph 1011.3mb 58f 55f
3:50 5ft 10s 8s 7 9 mph 1011.7mb 58f 55f
2:50 5ft 9s 8s 2 4 mph 1011.6mb 59f 54f
1:50 5ft 8s 7s 7 9 mph 1012.4mb 59f 54f
12:50 4.5ft 9s 7s 9 11 mph 1012.1mb 59f 54f
sam. 02/28 11:50 5.5ft 9s 7s 4 7 mph 1012.3mb 59f 53f
10:50 5ft 8s 7s 11 13 mph 1012.1mb 59f 52f
9:50 5.5ft 8s 7s 2
mph
1011.4mb 59f 57f
8:50 5.5ft 9s 7s 2
mph
1011.1mb 59f 57f
7:50 5ft 8s 7s 2 4 mph 1010.9mb 59f 57f
6:50 5ft 8s 7s 4 7 mph 1010.6mb 60f 57f
5:50 5ft 8s 7s 7 9 mph 1010.2mb 60f 57f
4:50 5ft 8s 7s 9 11 mph 1010mb 60f 58f
3:50 5ft 8s 6s 7 9 mph 1010mb 60f 57f
2:50 5.5ft 8s 7s 9 11 mph 1010.1mb 60f 57f
1:50 5ft 8s 6s 7
mph
1010.3mb 60f 56f
12:50 6ft 8s 6s 9 16 mph 1010.9mb 60f 56f
11:50 5ft 8s 6s 7 11 mph 1011.4mb 60f 58f
10:50 5ft 8s 6s 7 9 mph 1011.7mb 59f 57f
9:50 5ft 8s 6s 9 13 mph 1011.4mb 59f 56f
8:50 5ft 8s 6s 11 13 mph 1010.9mb 59f 57f
7:50 5ft 8s 5s 13 16 mph 1010.2mb 59f 57f
6:50 6ft 8s 5s 13 16 mph 1009.4mb 59f 56f
5:50 5.5ft 8s 5s 18 20 mph 1008.9mb 59f 56f
4:50 6ft 8s 5s 18 22 mph 1008.6mb 59f 56f
3:50 6ft 7s 5s 20 25 mph 1008.6mb 59f 55f
2:50 7ft 8s 6s 18 22 mph 1009mb 59f 57f
1:50 6.5ft 7s 6s 18 22 mph 1009.3mb 59f 58f
12:50 6ft 8s 6s 20 22 mph 1009.2mb 60f 58f
ven. 02/27 11:50 7ft 9s 6s 20 25 mph 1009.3mb 60f 57f
10:50 7ft 8s 6s 20 25 mph 1009.3mb 60f 57f
9:50 7.5ft 8s 6s 22 27 mph 1009.4mb 60f 57f
8:50 7.5ft 8s 6s 25 29 mph 1009.2mb 60f 58f
7:50 8ft 9s 6s 22 27 mph 1008.9mb 60f 58f
6:50 8ft 9s 6s 20 25 mph 1008.6mb 60f 58f
5:50 8ft 10s 6s 22 25 mph 1008.6mb 60f 59f
4:50 9ft 10s 6s 25 31 mph 1008.7mb 60f 59f
3:50 9.5ft 10s 6s 25 31 mph 1008.9mb 60f 59f
2:50 9.5ft 10s 6s 25 29 mph 1009.3mb 60f 59f
1:50 9ft 10s 6s 27 34 mph 1009.6mb 60f 59f
12:50 9ft 10s 6s 25 34 mph 1010mb 60f 59f
11:50 9.5ft 11s 6s 27 34 mph 1011.2mb 60f 59f
10:50 10ft 11s 6s 25 34 mph 1011.4mb 60f 59f
9:50 10.5ft 11s 6s 25 29 mph 1011.5mb 60f 58f
8:50 10.5ft 10s 7s 29 38 mph 1010.9mb 60f 58f
7:50 11ft 10s 6s 29 38 mph 1009.8mb 60f 59f
6:50 11ft 9s 7s 27 34 mph 1009.7mb 60f 58f
5:50 10ft 9s 6s 29 34 mph 1009.2mb 60f 58f
4:50 10.5ft 11s 6s 29 34 mph 1009mb 60f 58f
3:50 10.5ft 10s 7s 29 36 mph 1009mb 60f 59f
2:50 10ft 10s 6s 25 31 mph 1009.7mb 60f 59f
1:50 9ft 11s 6s 29 38 mph 1009.6mb 60f 58f
12:50 10ft 9s 7s 27 34 mph 1009.7mb 60f 59f
jeu. 02/26 11:50 9.5ft 11s 7s 25 31 mph 1010.1mb 60f 59f
10:50 9.5ft 10s 6s 27 29 mph 1010.5mb 60f 59f
9:50 8.5ft 7s 6s 25 29 mph 1010.9mb 60f 59f
8:50 8.5ft 8s 6s 25 31 mph 1010.4mb 60f 59f
7:50 9ft 9s 6s 27 34 mph 1010mb 60f 59f
6:50 9ft 11s 6s 29 36 mph 1009.9mb 60f 60f
5:50 9ft 7s 6s 31 36 mph 1009.6mb 60f 60f
4:50 8.5ft 9s 6s 29 34 mph 1009.4mb 60f 60f
3:50 9.5ft 7s 6s 31 36 mph 1009.7mb 60f 59f
2:50 9ft 6s 6s 34 38 mph 1009.8mb 60f 59f
1:50 8.5ft 7s 6s 29 36 mph 1010.8mb 60f 59f
12:50 9ft 9s 6s 27 31 mph 1012mb 60f 59f
11:50 9ft 8s 6s 27 31 mph 1012.9mb 60f 59f
10:50 8ft 8s 6s 29 34 mph 1013.8mb 60f 58f
9:50 8.5ft 8s 6s 29 34 mph 1013.6mb 60f 58f
8:50 9ft 8s 6s 25 29 mph 1014.1mb 60f 58f
7:50 9ft 8s 6s 25 31 mph 1013.7mb 60f 58f
6:50 8ft 8s 6s 22 27 mph 1013.7mb 60f 58f
5:50 8.5ft 7s 6s 25 29 mph 1013.9mb 60f 58f
4:50 8ft 8s 6s 22 27 mph 1013.9mb 60f 58f
3:50 8ft 6s 5s 27 31 mph 1013.8mb 60f 58f